Time;durP1;ratioP1;P1;durP2;ratioP2;P2;SDS_P1;SDS_P2;PMS_P1;PMS_P2;Temp;Humidity;BMP_temperature;BMP_pressure;BME280_temperature;BME280_humidity;BME280_pressure;Samples;Min_cycle;Max_cycle;Signal;HPM_P1;HPM_P2
2022/01/01 00:00:47;;;;;;;29.63;16.38;;;10.60;99.90;;;;;;5009708;28;20362;-67
2022/01/01 00:03:13;;;;;;;39.28;20.10;;;10.50;99.90;;;;;;5026142;28;20030;-67
2022/01/01 00:05:38;;;;;;;27.65;15.68;;;10.50;99.90;;;;;;5009371;28;20454;-66
2022/01/01 00:08:06;;;;;;;27.00;16.60;;;10.50;99.90;;;;;;5009102;28;20124;-65
2022/01/01 00:10:32;;;;;;;29.13;15.85;;;10.50;99.90;;;;;;5010187;28;20025;-66
2022/01/01 00:12:58;;;;;;;37.53;18.83;;;10.50;99.90;;;;;;5009982;28;20034;-66
2022/01/01 00:17:51;;;;;;;31.48;18.13;;;10.40;99.90;;;;;;5010134;28;20061;-70
2022/01/01 00:20:17;;;;;;;24.50;13.10;;;10.40;99.90;;;;;;4994486;28;20026;-70
2022/01/01 00:22:43;;;;;;;21.80;13.02;;;10.40;99.90;;;;;;4994319;28;20034;-70
2022/01/01 00:25:10;;;;;;;18.95;11.93;;;10.40;99.90;;;;;;4994452;28;20478;-70
2022/01/01 00:27:36;;;;;;;19.48;11.07;;;10.40;99.90;;;;;;4992517;28;20052;-70
2022/01/01 00:30:06;;;;;;;16.13;9.10;;;10.40;99.90;;;;;;4993106;28;20026;-70
2022/01/01 00:32:33;;;;;;;21.85;9.68;;;10.40;99.90;;;;;;4993446;28;20022;-70
2022/01/01 00:34:59;;;;;;;15.50;9.10;;;10.40;99.90;;;;;;4993977;28;20033;-70
2022/01/01 00:37:24;;;;;;;17.35;9.57;;;10.40;99.90;;;;;;4984510;28;20026;-70
2022/01/01 00:39:50;;;;;;;17.95;9.80;;;10.40;99.90;;;;;;4993895;28;20034;-69
2022/01/01 00:42:16;;;;;;;16.98;8.50;;;10.40;99.90;;;;;;4992739;28;20034;-70
2022/01/01 00:44:41;;;;;;;15.45;8.05;;;10.40;99.90;;;;;;4993773;28;20554;-70
2022/01/01 00:47:07;;;;;;;11.65;6.05;;;10.40;99.90;;;;;;4992344;28;20036;-70
2022/01/01 00:49:33;;;;;;;11.55;6.63;;;10.50;99.90;;;;;;4993461;28;20045;-70
2022/01/01 00:51:59;;;;;;;11.45;6.03;;;10.50;99.90;;;;;;4993871;28;20025;-70
2022/01/01 00:54:25;;;;;;;9.05;5.60;;;10.40;99.90;;;;;;4989197;28;20084;-70
2022/01/01 00:56:50;;;;;;;9.73;5.32;;;10.40;99.90;;;;;;4978264;28;20041;-70
2022/01/01 00:59:16;;;;;;;6.70;4.85;;;10.40;99.90;;;;;;4984424;28;20029;-70
2022/01/01 01:01:42;;;;;;;6.88;5.25;;;10.40;99.90;;;;;;4992565;28;20461;-71
2022/01/01 01:04:08;;;;;;;8.05;4.90;;;10.50;99.90;;;;;;4987219;28;20477;-71
2022/01/01 01:06:34;;;;;;;7.78;5.15;;;10.50;99.90;;;;;;4992583;28;20061;-71
2022/01/01 01:09:00;;;;;;;7.65;5.05;;;10.50;99.90;;;;;;4989215;28;20026;-70
2022/01/01 01:11:27;;;;;;;7.38;4.57;;;10.50;99.90;;;;;;4992777;28;20642;-71
2022/01/01 01:14:06;;;;;;;6.88;4.63;;;10.50;99.90;;;;;;4992171;28;20030;-70
2022/01/01 01:16:32;;;;;;;6.78;4.55;;;10.50;99.90;;;;;;4991660;28;20393;-70
2022/01/01 01:18:58;;;;;;;8.05;4.45;;;10.50;99.90;;;;;;4990881;28;20121;-71
2022/01/01 01:21:25;;;;;;;6.35;4.45;;;10.50;99.90;;;;;;4991823;28;20108;-70
2022/01/01 01:23:51;;;;;;;7.35;4.18;;;10.50;99.90;;;;;;4992164;28;20029;-71
2022/01/01 01:26:17;;;;;;;8.23;4.57;;;10.50;99.90;;;;;;4991547;28;20042;-70
2022/01/01 01:28:51;;;;;;;7.40;4.55;;;10.40;99.90;;;;;;4991777;28;20026;-70
2022/01/01 01:31:18;;;;;;;7.30;4.50;;;10.40;99.90;;;;;;4990413;28;20655;-71
2022/01/01 01:33:44;;;;;;;7.40;4.88;;;10.40;99.90;;;;;;4992603;28;20080;-70
2022/01/01 01:36:11;;;;;;;8.35;4.72;;;10.40;99.90;;;;;;4992072;28;20441;-70
2022/01/01 01:38:37;;;;;;;6.80;4.97;;;10.40;99.90;;;;;;4990716;28;20030;-71
2022/01/01 01:41:07;;;;;;;8.75;4.68;;;10.40;99.90;;;;;;4987838;28;20120;-70
2022/01/01 01:43:33;;;;;;;8.70;4.72;;;10.50;99.90;;;;;;4988118;28;20443;-70
2022/01/01 01:46:04;;;;;;;9.07;4.88;;;10.50;99.90;;;;;;4990700;28;20045;-71
2022/01/01 01:48:31;;;;;;;9.93;4.85;;;10.50;99.90;;;;;;4991762;28;20104;-70
2022/01/01 01:50:57;;;;;;;7.82;4.70;;;10.50;99.90;;;;;;4991297;28;20030;-70
2022/01/01 01:53:23;;;;;;;7.57;4.68;;;10.50;99.90;;;;;;4994770;28;20113;-69
2022/01/01 01:55:49;;;;;;;8.02;4.53;;;10.50;99.90;;;;;;4993950;28;20434;-73
2022/01/01 01:58:16;;;;;;;10.32;6.00;;;10.50;99.90;;;;;;4994665;28;20018;-70
2022/01/01 02:03:10;;;;;;;9.10;5.30;;;10.50;99.90;;;;;;5013747;28;20050;-71
2022/01/01 02:05:36;;;;;;;7.45;4.97;;;10.50;99.90;;;;;;4995281;28;20037;-71
2022/01/01 02:08:03;;;;;;;10.05;5.60;;;10.50;99.90;;;;;;4995384;28;20109;-70
2022/01/01 02:10:31;;;;;;;9.25;5.38;;;10.50;99.90;;;;;;5012613;28;20052;-70
2022/01/01 02:12:57;;;;;;;9.73;5.97;;;10.50;99.90;;;;;;4995584;28;20052;-71
2022/01/01 02:18:16;;;;;;;7.55;4.35;;;10.50;99.90;;;;;;5010416;28;20481;-70
2022/01/01 02:20:44;;;;;;;7.30;4.55;;;10.50;99.90;;;;;;4995883;28;20026;-71
2022/01/01 02:23:14;;;;;;;8.35;5.63;;;10.50;99.90;;;;;;4994754;28;20050;-70
2022/01/01 02:25:40;;;;;;;8.45;5.05;;;10.50;99.90;;;;;;4997713;28;20118;-70
2022/01/01 02:28:09;;;;;;;7.85;5.13;;;10.50;99.90;;;;;;4986714;28;20481;-70
2022/01/01 02:30:35;;;;;;;7.32;5.05;;;10.50;99.90;;;;;;4976625;28;20026;-70
2022/01/01 02:33:01;;;;;;;6.82;4.85;;;10.50;99.90;;;;;;4995122;28;20075;-71
2022/01/01 02:35:26;;;;;;;6.65;4.72;;;10.50;99.90;;;;;;4994605;28;20153;-70
2022/01/01 02:37:52;;;;;;;6.07;4.43;;;10.50;99.90;;;;;;4992612;28;20110;-71
2022/01/01 02:40:18;;;;;;;6.43;4.18;;;10.50;99.90;;;;;;4995425;28;20034;-70
2022/01/01 02:42:45;;;;;;;8.30;4.20;;;10.50;99.90;;;;;;4981026;28;20029;-70
2022/01/01 02:45:12;;;;;;;7.72;4.47;;;10.50;99.90;;;;;;4994925;28;20037;-70
2022/01/01 02:47:39;;;;;;;8.18;5.35;;;10.50;99.90;;;;;;4993637;28;20052;-70
2022/01/01 02:50:05;;;;;;;5.47;4.07;;;10.50;99.90;;;;;;4994463;28;20022;-71
2022/01/01 02:52:31;;;;;;;6.40;4.88;;;10.60;99.90;;;;;;4979936;28;20030;-71
2022/01/01 02:54:57;;;;;;;6.32;4.43;;;10.50;99.90;;;;;;4994392;28;20022;-70
2022/01/01 02:57:23;;;;;;;7.18;4.55;;;10.50;99.90;;;;;;4991124;28;20216;-71
2022/01/01 02:59:49;;;;;;;6.88;4.63;;;10.50;99.90;;;;;;4993734;28;20033;-70
2022/01/01 03:02:15;;;;;;;8.25;4.97;;;10.50;99.90;;;;;;4995007;28;20112;-70
2022/01/01 03:04:40;;;;;;;8.93;4.90;;;10.50;99.90;;;;;;4993690;28;20045;-70
2022/01/01 03:07:07;;;;;;;7.03;5.07;;;10.50;99.90;;;;;;4993874;28;20405;-70
2022/01/01 03:09:36;;;;;;;6.93;5.25;;;10.50;99.90;;;;;;4994338;28;20018;-70
2022/01/01 03:12:07;;;;;;;8.38;5.35;;;10.50;99.90;;;;;;4993756;28;20425;-71
2022/01/01 03:14:33;;;;;;;8.05;4.85;;;10.50;99.90;;;;;;4994692;28;20113;-70
2022/01/01 03:16:59;;;;;;;6.53;4.95;;;10.60;99.90;;;;;;4993226;28;20037;-71
2022/01/01 03:19:25;;;;;;;10.95;5.05;;;10.50;99.90;;;;;;4994447;28;20433;-70
2022/01/01 03:21:51;;;;;;;7.15;5.13;;;10.50;99.90;;;;;;4994023;28;20022;-70
2022/01/01 03:24:17;;;;;;;8.68;5.18;;;10.50;99.90;;;;;;5002573;28;20021;-71
2022/01/01 03:26:43;;;;;;;8.93;5.88;;;10.50;99.90;;;;;;4993808;28;20032;-71
2022/01/01 03:29:10;;;;;;;9.73;5.68;;;10.50;99.90;;;;;;4993326;28;20029;-70
2022/01/01 03:31:36;;;;;;;9.93;5.60;;;10.50;99.90;;;;;;4993561;28;20137;-71
2022/01/01 03:34:01;;;;;;;9.13;5.88;;;10.50;99.90;;;;;;4994372;28;20071;-70
2022/01/01 03:36:28;;;;;;;7.95;5.57;;;10.50;99.90;;;;;;4994435;28;20049;-70
2022/01/01 03:38:54;;;;;;;7.90;5.10;;;10.60;99.90;;;;;;4991831;28;20030;-70
2022/01/01 03:41:20;;;;;;;9.52;4.90;;;10.50;99.90;;;;;;4994337;28;20490;-70
2022/01/01 03:43:46;;;;;;;7.15;4.32;;;10.50;99.90;;;;;;4992385;28;20116;-71
2022/01/01 03:46:12;;;;;;;7.53;5.38;;;10.50;99.90;;;;;;4992555;28;20026;-70
2022/01/01 03:48:38;;;;;;;8.05;5.10;;;10.50;99.90;;;;;;4992198;28;20025;-70
2022/01/01 03:51:03;;;;;;;8.10;4.72;;;10.50;99.90;;;;;;4993601;28;20030;-70
2022/01/01 03:53:29;;;;;;;7.15;4.88;;;10.50;99.90;;;;;;4993654;28;20402;-69
2022/01/01 03:55:55;;;;;;;8.30;5.43;;;10.50;99.90;;;;;;4991910;28;20037;-70
2022/01/01 03:58:21;;;;;;;7.95;5.25;;;10.40;99.90;;;;;;4992361;28;20265;-69
2022/01/01 04:00:46;;;;;;;7.72;5.60;;;10.40;99.90;;;;;;4990833;28;20552;-70
2022/01/01 04:03:16;;;;;;;9.23;5.78;;;10.40;99.90;;;;;;4993312;28;20367;-70
2022/01/01 04:05:43;;;;;;;10.07;6.13;;;10.40;99.90;;;;;;4986305;28;20046;-70
2022/01/01 04:08:09;;;;;;;10.90;6.72;;;10.40;99.90;;;;;;4985399;28;20030;-70
2022/01/01 04:10:36;;;;;;;11.25;6.45;;;10.40;99.90;;;;;;4987871;28;20387;-69
2022/01/01 04:13:03;;;;;;;10.98;6.75;;;10.40;99.90;;;;;;4989919;28;20028;-69
2022/01/01 04:15:31;;;;;;;11.15;7.40;;;10.30;99.90;;;;;;4992645;28;20029;-70
2022/01/01 04:18:02;;;;;;;12.50;7.50;;;10.30;99.90;;;;;;4992052;28;20029;-70
2022/01/01 04:20:28;;;;;;;12.13;7.25;;;10.30;99.90;;;;;;4992854;28;20026;-69
2022/01/01 04:22:55;;;;;;;14.43;8.05;;;10.30;99.90;;;;;;5004895;28;20104;-69
2022/01/01 04:25:22;;;;;;;13.13;8.50;;;10.30;99.90;;;;;;4993369;28;20017;-70
2022/01/01 04:27:49;;;;;;;11.93;7.47;;;10.30;99.90;;;;;;4991667;28;20072;-70
2022/01/01 04:30:15;;;;;;;12.93;8.02;;;10.30;99.90;;;;;;4992895;28;20446;-70
2022/01/01 04:32:41;;;;;;;18.95;8.00;;;10.30;99.90;;;;;;4990349;28;20026;-70
2022/01/01 04:35:07;;;;;;;13.88;8.00;;;10.30;99.90;;;;;;4989964;28;20026;-70
2022/01/01 04:37:33;;;;;;;12.77;7.93;;;10.30;99.90;;;;;;4987850;28;20077;-70
2022/01/01 04:39:59;;;;;;;15.75;8.55;;;10.30;99.90;;;;;;4989933;28;20033;-70
2022/01/01 04:42:29;;;;;;;13.38;8.60;;;10.30;99.90;;;;;;4988596;28;20052;-70
2022/01/01 04:44:55;;;;;;;15.68;8.52;;;10.30;99.90;;;;;;4990154;28;20478;-70
2022/01/01 04:47:21;;;;;;;17.95;9.13;;;10.30;99.90;;;;;;4988703;28;20040;-70
2022/01/01 04:49:46;;;;;;;16.42;9.00;;;10.30;99.90;;;;;;4992056;28;20029;-70
2022/01/01 04:52:12;;;;;;;17.63;8.77;;;10.30;99.90;;;;;;4991322;28;20076;-70
2022/01/01 04:54:43;;;;;;;18.77;8.85;;;10.30;99.90;;;;;;4993396;28;20025;-70
2022/01/01 04:57:09;;;;;;;14.70;8.93;;;10.30;99.90;;;;;;4992085;28;20077;-69
2022/01/01 04:59:35;;;;;;;15.07;8.40;;;10.30;99.90;;;;;;4979021;28;20081;-70
2022/01/01 05:02:01;;;;;;;17.85;8.80;;;10.30;99.90;;;;;;4990082;28;20034;-69
2022/01/01 05:04:27;;;;;;;18.13;8.60;;;10.30;99.90;;;;;;4992763;28;20022;-70
2022/01/01 05:06:53;;;;;;;18.25;8.43;;;10.20;99.90;;;;;;4992168;28;20042;-70
2022/01/01 05:09:19;;;;;;;14.35;8.38;;;10.20;99.90;;;;;;4992127;28;20034;-70
2022/01/01 05:11:49;;;;;;;16.20;8.68;;;10.20;99.90;;;;;;4992316;28;20029;-69
2022/01/01 05:14:15;;;;;;;15.02;8.52;;;10.20;99.90;;;;;;4992742;28;20037;-69
2022/01/01 05:16:41;;;;;;;16.40;8.43;;;10.10;99.90;;;;;;4992406;28;20033;-70
2022/01/01 05:19:08;;;;;;;19.27;9.00;;;10.20;99.90;;;;;;4992317;28;20113;-70
2022/01/01 05:21:35;;;;;;;12.98;7.78;;;10.20;99.90;;;;;;4992321;28;20458;-70
2022/01/01 05:24:04;;;;;;;13.35;8.35;;;10.10;99.90;;;;;;5012206;28;20060;-69
2022/01/01 05:26:30;;;;;;;20.13;9.02;;;10.10;99.90;;;;;;4995958;28;20112;-70
2022/01/01 05:28:55;;;;;;;13.98;8.07;;;10.10;99.90;;;;;;4995137;28;20061;-69
2022/01/01 05:31:21;;;;;;;17.05;8.85;;;10.10;99.90;;;;;;4996726;28;20103;-70
2022/01/01 05:33:51;;;;;;;19.00;8.85;;;10.10;99.90;;;;;;4995645;28;20512;-70
2022/01/01 05:36:17;;;;;;;17.17;8.77;;;10.10;99.90;;;;;;4996566;28;20168;-69
2022/01/01 05:38:45;;;;;;;17.92;8.60;;;10.10;99.90;;;;;;4995337;28;20025;-69
2022/01/01 05:41:10;;;;;;;15.95;8.00;;;10.20;99.90;;;;;;4996455;28;20041;-70
2022/01/01 05:43:36;;;;;;;18.48;7.88;;;10.20;99.90;;;;;;4995769;28;20402;-69
2022/01/01 05:46:02;;;;;;;18.13;8.27;;;10.20;99.90;;;;;;4995794;28;20026;-70
2022/01/01 05:48:28;;;;;;;15.15;7.68;;;10.20;99.90;;;;;;4995251;28;20067;-69
2022/01/01 05:50:55;;;;;;;16.85;8.20;;;10.20;99.90;;;;;;5012050;28;20076;-70
2022/01/01 05:53:21;;;;;;;19.60;8.50;;;10.20;99.90;;;;;;4997198;28;20101;-69
2022/01/01 05:55:47;;;;;;;18.10;8.95;;;10.20;99.90;;;;;;4995235;28;20201;-69
2022/01/01 05:58:13;;;;;;;16.90;8.43;;;10.20;99.90;;;;;;4995161;28;20026;-70
2022/01/01 06:00:43;;;;;;;17.42;8.73;;;10.20;99.90;;;;;;4994414;28;20029;-70
2022/01/01 06:03:09;;;;;;;18.05;8.35;;;10.20;99.90;;;;;;4998708;28;20121;-70
2022/01/01 06:05:34;;;;;;;15.52;7.93;;;10.20;99.90;;;;;;4998462;28;20037;-70
2022/01/01 06:08:01;;;;;;;14.18;8.00;;;10.20;99.90;;;;;;4994275;28;20037;-70
2022/01/01 06:10:27;;;;;;;17.13;8.48;;;10.20;99.90;;;;;;4986891;28;20026;-71
2022/01/01 06:12:54;;;;;;;16.92;8.85;;;10.20;99.90;;;;;;4995127;28;20046;-70
2022/01/01 06:15:20;;;;;;;16.23;8.45;;;10.20;99.90;;;;;;4995831;28;20025;-70
2022/01/01 06:17:46;;;;;;;17.88;8.70;;;10.20;99.90;;;;;;4994641;28;20113;-71
2022/01/01 06:20:12;;;;;;;16.58;7.95;;;10.20;99.90;;;;;;4993981;28;20032;-71
2022/01/01 06:22:38;;;;;;;18.67;8.23;;;10.20;99.90;;;;;;4992837;28;20113;-70
2022/01/01 06:25:04;;;;;;;16.02;8.38;;;10.10;99.90;;;;;;4993516;28;20045;-71
2022/01/01 06:27:30;;;;;;;16.00;8.00;;;10.10;99.90;;;;;;4990662;28;20034;-70
2022/01/01 06:29:56;;;;;;;12.98;7.13;;;10.10;99.90;;;;;;4993449;28;20026;-70
2022/01/01 06:32:22;;;;;;;14.70;7.45;;;10.10;99.90;;;;;;4996251;28;20022;-70
2022/01/01 06:34:47;;;;;;;17.85;7.38;;;10.10;99.90;;;;;;4994189;28;20135;-70
2022/01/01 06:37:13;;;;;;;14.45;7.20;;;10.10;99.90;;;;;;4994110;28;20033;-70
2022/01/01 06:39:39;;;;;;;16.77;8.25;;;10.10;99.90;;;;;;4993807;28;20653;-70
2022/01/01 06:42:05;;;;;;;16.15;8.05;;;10.10;99.90;;;;;;4996829;28;20030;-70
2022/01/01 06:44:30;;;;;;;15.57;7.80;;;10.10;99.90;;;;;;4982232;28;20076;-70
2022/01/01 06:46:56;;;;;;;13.20;7.43;;;10.10;99.90;;;;;;4992570;28;20045;-71
2022/01/01 06:49:21;;;;;;;15.63;7.47;;;10.10;99.90;;;;;;4991793;28;20113;-71
2022/01/01 06:51:47;;;;;;;19.13;9.63;;;10.20;99.90;;;;;;4990903;28;20462;-70
2022/01/01 06:54:13;;;;;;;14.52;7.75;;;10.20;99.90;;;;;;4992510;28;20030;-70
2022/01/01 06:56:39;;;;;;;13.23;7.47;;;10.20;99.90;;;;;;4988277;28;20029;-70
2022/01/01 06:59:04;;;;;;;16.77;8.13;;;10.20;99.90;;;;;;4992472;28;20084;-70
2022/01/01 07:01:30;;;;;;;13.85;7.10;;;10.20;99.90;;;;;;4991963;28;20029;-71
2022/01/01 07:03:56;;;;;;;15.85;7.68;;;10.20;99.90;;;;;;4992504;28;20574;-70
2022/01/01 07:06:22;;;;;;;14.65;7.63;;;10.20;99.90;;;;;;4992337;28;20030;-70
2022/01/01 07:08:47;;;;;;;16.42;8.10;;;10.20;99.90;;;;;;4991451;28;20084;-70
2022/01/01 07:11:13;;;;;;;14.80;8.15;;;10.20;99.90;;;;;;4994131;28;20026;-70
2022/01/01 07:13:39;;;;;;;14.68;7.97;;;10.20;99.90;;;;;;4994571;28;20018;-70
2022/01/01 07:16:05;;;;;;;17.63;8.10;;;10.20;99.90;;;;;;4993965;28;20435;-70
2022/01/01 07:18:31;;;;;;;16.20;7.70;;;10.30;99.90;;;;;;4993337;28;20395;-70
2022/01/01 07:20:57;;;;;;;14.13;8.52;;;10.20;99.90;;;;;;4993453;28;20018;-71
2022/01/01 07:23:23;;;;;;;17.75;8.93;;;10.20;99.90;;;;;;4997356;28;20041;-70
2022/01/01 07:25:49;;;;;;;13.95;7.57;;;10.20;99.90;;;;;;5004355;28;20026;-70
2022/01/01 07:28:16;;;;;;;14.27;8.18;;;10.20;99.90;;;;;;4993451;28;20065;-70
2022/01/01 07:30:43;;;;;;;15.27;8.27;;;10.20;99.90;;;;;;4994131;28;20022;-70
2022/01/01 07:33:12;;;;;;;16.13;8.30;;;10.20;99.90;;;;;;4987511;28;20068;-70
2022/01/01 07:35:38;;;;;;;15.40;8.00;;;10.20;99.90;;;;;;4991937;28;20036;-70
2022/01/01 07:38:04;;;;;;;15.80;7.80;;;10.10;99.90;;;;;;4993055;28;20442;-71
2022/01/01 07:40:32;;;;;;;11.43;7.20;;;10.10;99.90;;;;;;4993401;28;20121;-70
2022/01/01 07:42:58;;;;;;;17.45;9.82;;;10.10;99.90;;;;;;4994184;28;20034;-70
2022/01/01 07:45:24;;;;;;;13.65;7.50;;;10.10;99.90;;;;;;4994148;28;20037;-70
2022/01/01 07:47:49;;;;;;;16.35;8.52;;;10.10;99.90;;;;;;4992435;28;20042;-70
2022/01/01 07:50:15;;;;;;;14.63;8.05;;;10.10;99.90;;;;;;4993933;28;20026;-70
2022/01/01 07:52:42;;;;;;;12.90;8.07;;;10.10;99.90;;;;;;4993606;28;20446;-68
2022/01/01 07:55:08;;;;;;;14.98;8.10;;;10.10;99.90;;;;;;4986820;28;20096;-67
2022/01/01 07:57:34;;;;;;;13.20;7.60;;;10.10;99.90;;;;;;5025856;23;20048;-65
2022/01/01 08:00:00;;;;;;;16.42;8.57;;;10.10;99.90;;;;;;5048002;28;20026;-67
2022/01/01 08:02:25;;;;;;;14.85;8.02;;;10.10;99.90;;;;;;5047094;28;20083;-67
2022/01/01 08:04:51;;;;;;;13.85;8.18;;;10.10;99.90;;;;;;5027735;28;20112;-67
2022/01/01 08:07:17;;;;;;;16.40;7.43;;;10.10;99.90;;;;;;5028019;28;20061;-66
2022/01/01 08:09:42;;;;;;;17.45;8.35;;;10.10;99.90;;;;;;5036776;28;20032;-67
2022/01/01 08:12:08;;;;;;;14.27;7.85;;;10.10;99.90;;;;;;5040689;28;20473;-67
2022/01/01 08:14:34;;;;;;;20.35;8.70;;;10.10;99.90;;;;;;5031137;28;20117;-67
2022/01/01 08:17:02;;;;;;;15.10;7.72;;;10.20;99.90;;;;;;5029300;28;20461;-67
2022/01/01 08:19:29;;;;;;;14.98;8.20;;;10.20;99.90;;;;;;5048588;28;20049;-67
2022/01/01 08:21:55;;;;;;;16.70;8.10;;;10.20;99.90;;;;;;5029800;28;20117;-66
2022/01/01 08:24:22;;;;;;;15.45;8.60;;;10.20;99.90;;;;;;5038099;28;20034;-66
2022/01/01 08:26:48;;;;;;;13.80;8.32;;;10.20;99.90;;;;;;5029571;28;20033;-67
2022/01/01 08:29:14;;;;;;;14.30;7.90;;;10.20;99.90;;;;;;5028967;28;20017;-67
2022/01/01 08:31:41;;;;;;;16.17;8.05;;;10.20;99.90;;;;;;5029310;28;20438;-67
2022/01/01 08:34:06;;;;;;;16.80;8.55;;;10.20;99.90;;;;;;5029596;28;20033;-67
2022/01/01 08:36:32;;;;;;;12.60;7.68;;;10.30;99.90;;;;;;5029545;28;20485;-67
2022/01/01 08:38:58;;;;;;;14.85;8.57;;;10.30;99.90;;;;;;5030857;28;20033;-67
2022/01/01 08:41:25;;;;;;;14.13;7.88;;;10.20;99.90;;;;;;5029879;28;20029;-67
2022/01/01 08:43:50;;;;;;;12.85;7.63;;;10.20;99.90;;;;;;5030328;28;20500;-67
2022/01/01 08:46:16;;;;;;;13.68;7.85;;;10.20;99.90;;;;;;5030218;28;20037;-67
2022/01/01 08:48:42;;;;;;;15.45;8.40;;;10.20;99.90;;;;;;5015375;28;20021;-67
2022/01/01 08:51:22;;;;;;;15.77;8.73;;;10.20;99.90;;;;;;5030819;28;20033;-67
2022/01/01 08:53:49;;;;;;;14.15;8.30;;;10.30;99.90;;;;;;5014108;28;20077;-66
2022/01/01 08:56:15;;;;;;;16.17;7.85;;;10.30;99.90;;;;;;5029453;28;20025;-67
2022/01/01 08:58:41;;;;;;;17.63;8.35;;;10.30;99.90;;;;;;5028981;28;20111;-67
2022/01/01 09:01:08;;;;;;;13.93;8.10;;;10.30;99.90;;;;;;5029647;28;20025;-67
2022/01/01 09:03:35;;;;;;;19.70;8.07;;;10.40;99.90;;;;;;5029968;28;20116;-67
2022/01/01 09:06:02;;;;;;;16.75;7.95;;;10.40;99.90;;;;;;5029711;28;20112;-67
2022/01/01 09:08:29;;;;;;;12.30;7.57;;;10.40;99.90;;;;;;5026112;28;20022;-67
2022/01/01 09:10:54;;;;;;;12.68;7.57;;;10.40;99.90;;;;;;5019647;28;20025;-67
2022/01/01 09:13:20;;;;;;;14.13;7.88;;;10.40;99.90;;;;;;5026791;28;20034;-67
2022/01/01 09:15:46;;;;;;;11.98;7.10;;;10.40;99.90;;;;;;5027870;28;20389;-66
2022/01/01 09:18:11;;;;;;;16.25;8.52;;;10.40;99.90;;;;;;5026501;28;20131;-67
2022/01/01 09:20:37;;;;;;;12.60;7.97;;;10.50;99.90;;;;;;5027533;28;20021;-67
2022/01/01 09:23:03;;;;;;;14.75;8.45;;;10.50;99.90;;;;;;5025167;28;20034;-67
2022/01/01 09:25:29;;;;;;;14.45;8.00;;;10.50;99.90;;;;;;5028368;28;20033;-65
2022/01/01 09:27:54;;;;;;;15.38;8.07;;;10.50;99.90;;;;;;5024934;28;20037;-66
2022/01/01 09:30:20;;;;;;;17.00;9.07;;;10.50;99.90;;;;;;5029090;28;20068;-67
2022/01/01 09:32:45;;;;;;;17.25;9.50;;;10.50;99.90;;;;;;5029180;28;20029;-67
2022/01/01 09:35:11;;;;;;;17.40;8.48;;;10.60;99.90;;;;;;5030002;28;20032;-67
2022/01/01 09:37:37;;;;;;;14.52;8.65;;;10.60;99.90;;;;;;5027913;28;20030;-67
2022/01/01 09:40:03;;;;;;;17.42;9.93;;;10.60;99.90;;;;;;5027486;28;20079;-66
2022/01/01 09:42:30;;;;;;;14.98;9.23;;;10.60;99.90;;;;;;5027473;28;20021;-67
2022/01/01 09:44:57;;;;;;;14.18;8.57;;;10.60;99.90;;;;;;5028296;28;20033;-67
2022/01/01 09:47:23;;;;;;;18.05;10.35;;;10.60;99.90;;;;;;5026680;28;20026;-66
2022/01/01 09:49:49;;;;;;;15.63;8.30;;;10.60;99.90;;;;;;5027204;28;20029;-65
2022/01/01 09:52:17;;;;;;;14.55;8.60;;;10.60;99.90;;;;;;5025700;28;20030;-66
2022/01/01 09:54:43;;;;;;;11.25;7.55;;;10.70;99.90;;;;;;5026708;28;20453;-65
2022/01/01 09:57:10;;;;;;;16.45;8.93;;;10.70;99.90;;;;;;5024725;28;20124;-64
2022/01/01 09:59:38;;;;;;;18.45;9.05;;;10.70;99.90;;;;;;5026914;28;20025;-65
2022/01/01 10:02:03;;;;;;;14.10;7.88;;;10.70;99.90;;;;;;5027584;28;20083;-67
2022/01/01 10:04:43;;;;;;;14.30;7.78;;;10.70;99.90;;;;;;5026901;28;20083;-67
2022/01/01 10:07:10;;;;;;;11.15;7.60;;;10.80;99.90;;;;;;5026596;28;20088;-66
2022/01/01 10:09:37;;;;;;;10.50;7.20;;;10.80;99.90;;;;;;5026069;28;20018;-65
2022/01/01 10:12:09;;;;;;;13.52;6.88;;;10.80;99.90;;;;;;5043607;28;20331;-65
2022/01/01 10:14:37;;;;;;;15.57;7.90;;;10.80;99.90;;;;;;5029624;28;20036;-64
2022/01/01 10:17:23;;;;;;;21.15;12.52;;;10.80;99.90;;;;;;5029675;28;20044;-64
2022/01/01 10:19:53;;;;;;;12.32;7.60;;;10.80;99.90;;;;;;5027998;28;20037;-65
2022/01/01 10:22:21;;;;;;;11.65;7.20;;;10.80;99.90;;;;;;5031923;28;20278;-65
2022/01/01 10:27:46;;;;;;;12.02;7.13;;;10.80;99.90;;;;;;5029637;28;20516;-65
2022/01/01 10:30:31;;;;;;;12.52;7.35;;;10.80;99.90;;;;;;5033657;28;20036;-65
2022/01/01 10:33:05;;;;;;;12.02;6.85;;;10.90;99.90;;;;;;5049493;28;20025;-65
2022/01/01 10:35:46;;;;;;;11.00;6.88;;;10.90;99.90;;;;;;5033415;28;20394;-66
2022/01/01 10:38:27;;;;;;;11.07;6.25;;;10.90;99.90;;;;;;5031464;28;20072;-66
2022/01/01 10:41:07;;;;;;;11.48;6.80;;;10.90;99.90;;;;;;5032264;28;20073;-66
2022/01/01 10:43:41;;;;;;;11.75;7.05;;;10.90;99.90;;;;;;5032244;28;20039;-66
2022/01/01 10:46:16;;;;;;;11.57;7.38;;;10.90;99.90;;;;;;5031256;28;20021;-68
2022/01/01 10:51:15;;;;;;;11.50;7.05;;;10.90;99.90;;;;;;5033385;28;20108;-66
2022/01/01 10:53:43;;;;;;;10.60;6.80;;;10.90;99.90;;;;;;5031593;28;20057;-70
2022/01/01 10:56:20;;;;;;;12.05;7.10;;;10.90;99.90;;;;;;5033372;28;20063;-66
2022/01/01 10:58:59;;;;;;;11.68;6.95;;;10.90;99.90;;;;;;5030644;28;20025;-67
2022/01/01 11:01:25;;;;;;;10.18;6.65;;;11.00;99.90;;;;;;5032340;28;20532;-68
2022/01/01 11:03:54;;;;;;;10.77;6.72;;;11.10;99.90;;;;;;5031544;28;20037;-66
2022/01/01 11:06:21;;;;;;;10.48;6.72;;;11.10;99.90;;;;;;5031866;28;20453;-66
2022/01/01 11:08:47;;;;;;;12.20;6.40;;;11.20;99.90;;;;;;5030507;28;20029;-67
2022/01/01 11:11:14;;;;;;;15.95;6.60;;;11.20;99.90;;;;;;5031466;28;20056;-66
2022/01/01 11:13:41;;;;;;;8.27;5.85;;;11.30;99.90;;;;;;5030575;28;20510;-66
2022/01/01 11:16:07;;;;;;;10.15;6.05;;;11.40;99.90;;;;;;5029892;28;20022;-66
2022/01/01 11:18:34;;;;;;;11.43;6.60;;;11.40;99.90;;;;;;5028440;28;20029;-66
2022/01/01 11:21:02;;;;;;;11.55;5.70;;;11.40;99.90;;;;;;5031865;28;20044;-66
2022/01/01 11:23:27;;;;;;;7.82;5.07;;;11.50;99.90;;;;;;5030673;28;20025;-66
2022/01/01 11:25:54;;;;;;;10.48;5.50;;;11.50;99.90;;;;;;5030751;28;20084;-66
2022/01/01 11:28:21;;;;;;;9.27;5.13;;;11.40;99.90;;;;;;5028950;28;20032;-67
2022/01/01 11:31:03;;;;;;;8.60;5.03;;;11.50;99.90;;;;;;5035401;28;20031;-65
2022/01/01 11:33:42;;;;;;;7.33;4.80;;;11.50;99.90;;;;;;5026448;28;20029;-66
2022/01/01 11:36:21;;;;;;;8.75;5.45;;;11.50;99.90;;;;;;5030846;28;20296;-67
2022/01/01 11:38:48;;;;;;;9.02;4.82;;;11.50;99.90;;;;;;5030324;28;20525;-66
2022/01/01 11:41:17;;;;;;;6.82;4.65;;;11.50;99.90;;;;;;5040294;28;20021;-66
2022/01/01 11:43:55;;;;;;;7.30;5.10;;;11.60;99.90;;;;;;5032859;28;20057;-66
2022/01/01 11:46:22;;;;;;;23.90;13.95;;;11.60;99.90;;;;;;5031117;28;20018;-65
2022/01/01 11:48:52;;;;;;;10.80;4.90;;;11.70;99.90;;;;;;5030976;28;20417;-65
2022/01/01 11:51:48;;;;;;;9.18;5.25;;;11.70;99.90;;;;;;5030911;28;20031;-65
2022/01/01 11:54:35;;;;;;;10.55;5.53;;;11.70;99.90;;;;;;5033605;28;20021;-66
2022/01/01 11:57:26;;;;;;;8.18;5.05;;;11.80;99.90;;;;;;5032573;28;20037;-66
2022/01/01 11:59:58;;;;;;;7.47;4.82;;;11.80;99.90;;;;;;5029944;28;20532;-67
2022/01/01 12:02:24;;;;;;;;;;;11.80;99.90;;;;;;5030114;28;20029;-66
2022/01/01 12:04:51;;;;;;;7.90;4.80;;;11.80;99.90;;;;;;5027820;28;19923;-66
2022/01/01 12:07:16;;;;;;;6.90;4.18;;;11.80;99.90;;;;;;5028574;28;20029;-65
2022/01/01 12:10:07;;;;;;;8.32;4.10;;;11.90;99.90;;;;;;5027060;28;20037;-66
2022/01/01 12:12:52;;;;;;;6.20;3.67;;;11.90;99.90;;;;;;5026622;28;20692;-65
2022/01/01 12:15:24;;;;;;;5.22;3.92;;;12.00;99.90;;;;;;5031161;28;20120;-65
2022/01/01 12:18:01;;;;;;;8.40;4.32;;;12.10;99.90;;;;;;5029767;28;20478;-66
2022/01/01 12:20:41;;;;;;;5.68;3.47;;;12.20;99.90;;;;;;5030461;28;20037;-65
2022/01/01 12:23:13;;;;;;;6.22;3.85;;;12.30;99.90;;;;;;5029944;28;20053;-66
2022/01/01 12:25:40;;;;;;;6.72;4.38;;;12.40;99.90;;;;;;5020518;28;20462;-64
2022/01/01 12:28:13;;;;;;;7.32;3.97;;;12.50;99.90;;;;;;5028771;28;20036;-65
2022/01/01 12:30:40;;;;;;;;;;;12.60;99.90;;;;;;5030940;28;20018;-66
2022/01/01 12:33:07;;;;;;;7.63;3.90;;;12.70;99.90;;;;;;5030049;28;19912;-68
2022/01/01 12:35:41;;;;;;;7.35;3.95;;;12.80;99.90;;;;;;5030616;28;20060;-66
2022/01/01 12:38:11;;;;;;;6.70;4.28;;;12.90;99.90;;;;;;5028869;28;20116;-64
2022/01/01 12:40:53;;;;;;;5.63;3.60;;;13.00;99.90;;;;;;5046853;28;20428;-65
2022/01/01 12:43:20;;;;;;;7.75;4.80;;;13.30;99.90;;;;;;5030178;28;20033;-65
2022/01/01 12:45:49;;;;;;;6.65;4.35;;;13.40;99.90;;;;;;5030518;28;20386;-66
2022/01/01 12:48:18;;;;;;;7.85;4.65;;;13.40;99.90;;;;;;5028179;28;20389;-66
2022/01/01 12:50:43;;;;;;;6.53;4.47;;;13.40;99.90;;;;;;5030100;28;20100;-66
2022/01/01 12:53:10;;;;;;;5.97;3.72;;;13.50;99.90;;;;;;5029991;28;20113;-67
2022/01/01 12:55:35;;;;;;;6.22;3.53;;;13.50;99.90;;;;;;5030236;28;20036;-66